Weather at Concord-Padgett Regional Airport

Public forecast

Using degrees Fahrenheit for public forecast. Weather courtesy of forecast.io.

Current aviation weather report (METAR) for Concord-Padgett Regional Airport

2024/06/20 11:50 (retrieved 11 minutes ago)

KJQF 201150Z 00000KT 10SM CLR 23/18 A3038

Closest aviation forecast (TAF) to Concord-Padgett Regional Airport

Closest forecast is Charlotte Douglas International Airport, 15.5 nm (28.7 km) SW.

2024/06/20 12:30 (retrieved 0 seconds ago)

TAF KCLT 201128Z 2012/2118 00000KT P6SM FEW250 FM201600 07007KT P6SM SCT050 SCT250 FM210200 VRB02KT P6SM SCT250 FM211500 08004KT P6SM FEW250